sensor_id;sensor_type;location;lat;lon;timestamp;temperature;humidity
44509;DHT22;30214;52.246;14.408;2023-06-26T00:00:27;20.00;99.90
44509;DHT22;30214;52.246;14.408;2023-06-26T00:02:58;20.00;99.90
44509;DHT22;30214;52.246;14.408;2023-06-26T00:05:28;19.90;99.90
44509;DHT22;30214;52.246;14.408;2023-06-26T00:08:00;19.90;99.90
44509;DHT22;30214;52.246;14.408;2023-06-26T00:10:32;19.90;99.90
44509;DHT22;30214;52.246;14.408;2023-06-26T00:13:00;19.80;99.90
44509;DHT22;30214;52.246;14.408;2023-06-26T00:15:30;19.80;99.90
44509;DHT22;30214;52.246;14.408;2023-06-26T00:18:00;19.80;99.90
44509;DHT22;30214;52.246;14.408;2023-06-26T00:20:31;19.70;99.90
44509;DHT22;30214;52.246;14.408;2023-06-26T00:23:01;19.70;99.90
44509;DHT22;30214;52.246;14.408;2023-06-26T00:25:30;19.70;99.90
44509;DHT22;30214;52.246;14.408;2023-06-26T00:27:57;19.70;99.90
44509;DHT22;30214;52.246;14.408;2023-06-26T00:30:24;19.70;99.90
44509;DHT22;30214;52.246;14.408;2023-06-26T00:32:52;19.70;99.90
44509;DHT22;30214;52.246;14.408;2023-06-26T00:35:19;19.70;99.90
44509;DHT22;30214;52.246;14.408;2023-06-26T00:37:47;19.60;99.90
44509;DHT22;30214;52.246;14.408;2023-06-26T00:40:20;19.50;99.90
44509;DHT22;30214;52.246;14.408;2023-06-26T00:42:48;19.40;99.90
44509;DHT22;30214;52.246;14.408;2023-06-26T00:45:20;19.40;99.90
44509;DHT22;30214;52.246;14.408;2023-06-26T00:47:51;19.40;99.90
44509;DHT22;30214;52.246;14.408;2023-06-26T00:50:21;19.40;99.90
44509;DHT22;30214;52.246;14.408;2023-06-26T00:52:54;19.30;99.90
44509;DHT22;30214;52.246;14.408;2023-06-26T00:55:27;19.00;99.90
44509;DHT22;30214;52.246;14.408;2023-06-26T00:57:57;18.90;99.90
44509;DHT22;30214;52.246;14.408;2023-06-26T01:00:29;18.80;99.90
44509;DHT22;30214;52.246;14.408;2023-06-26T01:02:57;18.90;99.90
44509;DHT22;30214;52.246;14.408;2023-06-26T01:05:27;19.00;99.90
44509;DHT22;30214;52.246;14.408;2023-06-26T01:07:54;18.90;99.90
44509;DHT22;30214;52.246;14.408;2023-06-26T01:10:25;18.90;99.90
44509;DHT22;30214;52.246;14.408;2023-06-26T01:12:57;18.90;99.90
44509;DHT22;30214;52.246;14.408;2023-06-26T01:15:24;18.90;99.90
44509;DHT22;30214;52.246;14.408;2023-06-26T01:17:52;18.70;99.90
44509;DHT22;30214;52.246;14.408;2023-06-26T01:20:24;18.60;99.90
44509;DHT22;30214;52.246;14.408;2023-06-26T01:22:59;18.60;99.90
44509;DHT22;30214;52.246;14.408;2023-06-26T01:25:35;18.70;99.90
44509;DHT22;30214;52.246;14.408;2023-06-26T01:28:07;18.80;99.90
44509;DHT22;30214;52.246;14.408;2023-06-26T01:30:42;18.60;99.90
44509;DHT22;30214;52.246;14.408;2023-06-26T01:33:16;18.50;99.90
44509;DHT22;30214;52.246;14.408;2023-06-26T01:35:53;18.40;99.90
44509;DHT22;30214;52.246;14.408;2023-06-26T01:38:21;18.30;99.90
44509;DHT22;30214;52.246;14.408;2023-06-26T01:40:51;18.30;99.90
44509;DHT22;30214;52.246;14.408;2023-06-26T01:43:29;18.40;99.90
44509;DHT22;30214;52.246;14.408;2023-06-26T01:46:03;18.30;99.90
44509;DHT22;30214;52.246;14.408;2023-06-26T01:48:36;18.10;99.90
44509;DHT22;30214;52.246;14.408;2023-06-26T01:51:08;18.10;99.90
44509;DHT22;30214;52.246;14.408;2023-06-26T01:53:40;18.20;99.90
44509;DHT22;30214;52.246;14.408;2023-06-26T01:56:16;18.20;99.90
44509;DHT22;30214;52.246;14.408;2023-06-26T01:58:47;18.30;99.90
44509;DHT22;30214;52.246;14.408;2023-06-26T02:01:15;18.30;99.90
44509;DHT22;30214;52.246;14.408;2023-06-26T02:03:45;18.30;99.90
44509;DHT22;30214;52.246;14.408;2023-06-26T02:06:12;18.30;99.90
44509;DHT22;30214;52.246;14.408;2023-06-26T02:08:40;18.30;99.90
44509;DHT22;30214;52.246;14.408;2023-06-26T02:11:09;18.30;99.90
44509;DHT22;30214;52.246;14.408;2023-06-26T02:13:36;18.30;99.90
44509;DHT22;30214;52.246;14.408;2023-06-26T02:16:06;18.30;99.90
44509;DHT22;30214;52.246;14.408;2023-06-26T02:18:33;18.30;99.90
44509;DHT22;30214;52.246;14.408;2023-06-26T02:21:03;18.30;99.90
44509;DHT22;30214;52.246;14.408;2023-06-26T02:23:36;18.30;99.90
44509;DHT22;30214;52.246;14.408;2023-06-26T02:26:06;18.30;99.90
44509;DHT22;30214;52.246;14.408;2023-06-26T02:28:33;18.20;99.90
44509;DHT22;30214;52.246;14.408;2023-06-26T02:31:05;18.30;99.90
44509;DHT22;30214;52.246;14.408;2023-06-26T02:33:35;18.30;99.90
44509;DHT22;30214;52.246;14.408;2023-06-26T02:36:05;18.30;99.90
44509;DHT22;30214;52.246;14.408;2023-06-26T02:38:37;18.40;99.90
44509;DHT22;30214;52.246;14.408;2023-06-26T02:41:08;18.30;99.90
44509;DHT22;30214;52.246;14.408;2023-06-26T02:43:36;18.30;99.90
44509;DHT22;30214;52.246;14.408;2023-06-26T02:46:07;18.30;99.90
44509;DHT22;30214;52.246;14.408;2023-06-26T02:48:37;18.30;99.90
44509;DHT22;30214;52.246;14.408;2023-06-26T02:51:10;18.30;99.90
44509;DHT22;30214;52.246;14.408;2023-06-26T02:53:37;18.30;99.90
44509;DHT22;30214;52.246;14.408;2023-06-26T02:56:07;18.30;99.90
44509;DHT22;30214;52.246;14.408;2023-06-26T02:58:35;18.20;99.90
44509;DHT22;30214;52.246;14.408;2023-06-26T03:01:03;18.30;99.90
44509;DHT22;30214;52.246;14.408;2023-06-26T03:03:32;18.30;99.90
44509;DHT22;30214;52.246;14.408;2023-06-26T03:06:11;18.40;99.90
44509;DHT22;30214;52.246;14.408;2023-06-26T03:08:38;18.40;99.90
44509;DHT22;30214;52.246;14.408;2023-06-26T03:11:06;18.30;99.90
44509;DHT22;30214;52.246;14.408;2023-06-26T03:13:40;18.40;99.90
44509;DHT22;30214;52.246;14.408;2023-06-26T03:16:07;18.40;99.90
44509;DHT22;30214;52.246;14.408;2023-06-26T03:18:38;18.40;99.90
44509;DHT22;30214;52.246;14.408;2023-06-26T03:21:09;18.40;99.90
44509;DHT22;30214;52.246;14.408;2023-06-26T03:23:36;18.40;99.90
44509;DHT22;30214;52.246;14.408;2023-06-26T03:26:05;18.40;99.90
44509;DHT22;30214;52.246;14.408;2023-06-26T03:28:39;18.50;99.90
44509;DHT22;30214;52.246;14.408;2023-06-26T03:31:12;18.40;99.90
44509;DHT22;30214;52.246;14.408;2023-06-26T03:37:29;18.50;99.90
44509;DHT22;30214;52.246;14.408;2023-06-26T03:39:57;18.50;99.90
44509;DHT22;30214;52.246;14.408;2023-06-26T03:42:25;18.50;99.90
44509;DHT22;30214;52.246;14.408;2023-06-26T03:44:56;18.40;99.90
44509;DHT22;30214;52.246;14.408;2023-06-26T03:47:23;18.40;99.90
44509;DHT22;30214;52.246;14.408;2023-06-26T03:49:51;18.40;99.90
44509;DHT22;30214;52.246;14.408;2023-06-26T03:52:19;18.40;99.90
44509;DHT22;30214;52.246;14.408;2023-06-26T03:54:46;18.40;99.90
44509;DHT22;30214;52.246;14.408;2023-06-26T03:57:16;18.40;99.90
44509;DHT22;30214;52.246;14.408;2023-06-26T03:59:46;18.40;99.90
44509;DHT22;30214;52.246;14.408;2023-06-26T04:02:16;18.50;99.90
44509;DHT22;30214;52.246;14.408;2023-06-26T04:08:32;18.70;99.90
44509;DHT22;30214;52.246;14.408;2023-06-26T04:10:59;18.90;99.90
44509;DHT22;30214;52.246;14.408;2023-06-26T04:13:26;18.90;99.90
44509;DHT22;30214;52.246;14.408;2023-06-26T04:15:53;18.90;99.90
44509;DHT22;30214;52.246;14.408;2023-06-26T04:26:01;19.20;99.90
44509;DHT22;30214;52.246;14.408;2023-06-26T04:28:30;19.30;99.90
44509;DHT22;30214;52.246;14.408;2023-06-26T04:31:14;19.40;99.90
44509;DHT22;30214;52.246;14.408;2023-06-26T04:33:42;19.40;99.90
44509;DHT22;30214;52.246;14.408;2023-06-26T04:36:11;19.50;99.90
44509;DHT22;30214;52.246;14.408;2023-06-26T04:38:38;19.60;99.90
44509;DHT22;30214;52.246;14.408;2023-06-26T04:41:22;19.80;99.90
44509;DHT22;30214;52.246;14.408;2023-06-26T04:47:41;20.10;99.90
44509;DHT22;30214;52.246;14.408;2023-06-26T04:50:33;20.20;99.90
44509;DHT22;30214;52.246;14.408;2023-06-26T05:00:38;20.50;99.90
44509;DHT22;30214;52.246;14.408;2023-06-26T05:03:09;20.70;99.90
44509;DHT22;30214;52.246;14.408;2023-06-26T05:05:37;20.80;99.90
44509;DHT22;30214;52.246;14.408;2023-06-26T05:08:23;20.90;99.90
44509;DHT22;30214;52.246;14.408;2023-06-26T05:10:55;21.00;99.90
44509;DHT22;30214;52.246;14.408;2023-06-26T05:13:23;21.00;99.90
44509;DHT22;30214;52.246;14.408;2023-06-26T05:16:20;21.10;99.90
44509;DHT22;30214;52.246;14.408;2023-06-26T05:18:49;21.10;99.90
44509;DHT22;30214;52.246;14.408;2023-06-26T05:21:17;21.30;99.90
44509;DHT22;30214;52.246;14.408;2023-06-26T06:06:31;23.30;99.90
44509;DHT22;30214;52.246;14.408;2023-06-26T06:09:03;23.60;99.90
44509;DHT22;30214;52.246;14.408;2023-06-26T06:11:32;23.90;99.90
44509;DHT22;30214;52.246;14.408;2023-06-26T06:14:09;24.10;99.90
44509;DHT22;30214;52.246;14.408;2023-06-26T06:16:38;24.50;99.90
44509;DHT22;30214;52.246;14.408;2023-06-26T07:25:00;28.60;85.50
44509;DHT22;30214;52.246;14.408;2023-06-26T07:31:15;28.80;85.40
44509;DHT22;30214;52.246;14.408;2023-06-26T07:41:11;29.00;81.60
44509;DHT22;30214;52.246;14.408;2023-06-26T07:43:38;29.50;81.40
44509;DHT22;30214;52.246;14.408;2023-06-26T07:46:05;29.30;77.90
44509;DHT22;30214;52.246;14.408;2023-06-26T07:48:32;29.20;83.00
44509;DHT22;30214;52.246;14.408;2023-06-26T07:50:59;29.30;82.20
44509;DHT22;30214;52.246;14.408;2023-06-26T07:53:26;29.50;78.80
44509;DHT22;30214;52.246;14.408;2023-06-26T07:55:53;29.60;76.70
44509;DHT22;30214;52.246;14.408;2023-06-26T07:58:22;29.80;75.40
44509;DHT22;30214;52.246;14.408;2023-06-26T08:00:52;29.80;75.20
44509;DHT22;30214;52.246;14.408;2023-06-26T08:07:16;30.00;74.00
44509;DHT22;30214;52.246;14.408;2023-06-26T08:09:44;30.10;76.40
44509;DHT22;30214;52.246;14.408;2023-06-26T08:12:11;30.20;72.40
44509;DHT22;30214;52.246;14.408;2023-06-26T08:14:42;30.10;72.00
44509;DHT22;30214;52.246;14.408;2023-06-26T08:17:09;29.90;75.90
44509;DHT22;30214;52.246;14.408;2023-06-26T08:19:36;30.00;75.80
44509;DHT22;30214;52.246;14.408;2023-06-26T08:29:33;30.00;70.30
44509;DHT22;30214;52.246;14.408;2023-06-26T08:39:12;30.30;70.80
44509;DHT22;30214;52.246;14.408;2023-06-26T08:49:25;30.20;70.60
44509;DHT22;30214;52.246;14.408;2023-06-26T08:52:02;30.30;72.60
44509;DHT22;30214;52.246;14.408;2023-06-26T08:54:58;30.10;71.00
44509;DHT22;30214;52.246;14.408;2023-06-26T08:57:28;30.20;72.80
44509;DHT22;30214;52.246;14.408;2023-06-26T09:03:08;30.60;68.30
44509;DHT22;30214;52.246;14.408;2023-06-26T09:05:36;30.50;66.00
44509;DHT22;30214;52.246;14.408;2023-06-26T09:36:31;30.60;66.90
44509;DHT22;30214;52.246;14.408;2023-06-26T09:39:16;30.40;64.20
44509;DHT22;30214;52.246;14.408;2023-06-26T09:41:43;29.90;65.70
44509;DHT22;30214;52.246;14.408;2023-06-26T09:44:14;29.80;66.70
44509;DHT22;30214;52.246;14.408;2023-06-26T09:47:15;29.80;66.70
44509;DHT22;30214;52.246;14.408;2023-06-26T09:49:43;30.00;67.50
44509;DHT22;30214;52.246;14.408;2023-06-26T09:52:14;30.30;69.80
44509;DHT22;30214;52.246;14.408;2023-06-26T09:55:09;30.70;65.50
44509;DHT22;30214;52.246;14.408;2023-06-26T09:57:38;31.00;67.40
44509;DHT22;30214;52.246;14.408;2023-06-26T10:00:23;31.10;64.00
44509;DHT22;30214;52.246;14.408;2023-06-26T10:03:19;31.30;61.80
44509;DHT22;30214;52.246;14.408;2023-06-26T10:09:37;31.60;60.70
44509;DHT22;30214;52.246;14.408;2023-06-26T10:16:24;31.50;62.20
44509;DHT22;30214;52.246;14.408;2023-06-26T10:18:55;31.30;61.30
44509;DHT22;30214;52.246;14.408;2023-06-26T10:21:25;31.10;62.90
44509;DHT22;30214;52.246;14.408;2023-06-26T10:23:53;31.00;59.60
44509;DHT22;30214;52.246;14.408;2023-06-26T10:26:27;30.90;60.00
44509;DHT22;30214;52.246;14.408;2023-06-26T10:29:16;30.90;62.50
44509;DHT22;30214;52.246;14.408;2023-06-26T10:42:11;30.40;68.10
44509;DHT22;30214;52.246;14.408;2023-06-26T10:52:21;30.60;65.00
44509;DHT22;30214;52.246;14.408;2023-06-26T10:54:52;30.90;65.80
44509;DHT22;30214;52.246;14.408;2023-06-26T10:57:32;31.10;61.20
44509;DHT22;30214;52.246;14.408;2023-06-26T11:00:08;31.30;61.40
44509;DHT22;30214;52.246;14.408;2023-06-26T11:21:48;31.90;59.90
44509;DHT22;30214;52.246;14.408;2023-06-26T11:24:19;32.00;59.00
44509;DHT22;30214;52.246;14.408;2023-06-26T11:27:08;31.90;57.90
44509;DHT22;30214;52.246;14.408;2023-06-26T11:47:40;32.30;57.20
44509;DHT22;30214;52.246;14.408;2023-06-26T12:00:57;32.20;56.00
44509;DHT22;30214;52.246;14.408;2023-06-26T12:30:22;32.40;53.60
44509;DHT22;30214;52.246;14.408;2023-06-26T12:32:52;32.40;57.80
44509;DHT22;30214;52.246;14.408;2023-06-26T12:35:23;32.60;56.60
44509;DHT22;30214;52.246;14.408;2023-06-26T12:37:54;32.40;57.20
44509;DHT22;30214;52.246;14.408;2023-06-26T12:43:22;32.50;56.20
44509;DHT22;30214;52.246;14.408;2023-06-26T12:45:54;32.40;56.40
44509;DHT22;30214;52.246;14.408;2023-06-26T12:48:40;32.40;57.80
44509;DHT22;30214;52.246;14.408;2023-06-26T12:51:10;32.50;54.80
44509;DHT22;30214;52.246;14.408;2023-06-26T12:53:40;32.40;56.60
44509;DHT22;30214;52.246;14.408;2023-06-26T12:56:11;32.30;54.80
44509;DHT22;30214;52.246;14.408;2023-06-26T12:58:47;32.40;56.40
44509;DHT22;30214;52.246;14.408;2023-06-26T13:01:35;32.10;54.00
44509;DHT22;30214;52.246;14.408;2023-06-26T13:04:03;32.10;55.90
44509;DHT22;30214;52.246;14.408;2023-06-26T13:06:31;32.00;56.90
44509;DHT22;30214;52.246;14.408;2023-06-26T13:08:58;31.60;56.40
44509;DHT22;30214;52.246;14.408;2023-06-26T13:11:28;31.70;57.30
44509;DHT22;30214;52.246;14.408;2023-06-26T13:13:56;32.00;56.80
44509;DHT22;30214;52.246;14.408;2023-06-26T13:16:23;32.30;55.80
44509;DHT22;30214;52.246;14.408;2023-06-26T13:18:52;32.40;58.60
44509;DHT22;30214;52.246;14.408;2023-06-26T13:21:21;32.60;56.30
44509;DHT22;30214;52.246;14.408;2023-06-26T13:23:50;32.60;57.30
44509;DHT22;30214;52.246;14.408;2023-06-26T13:26:19;32.50;54.50
44509;DHT22;30214;52.246;14.408;2023-06-26T13:28:50;32.60;54.60
44509;DHT22;30214;52.246;14.408;2023-06-26T13:31:28;32.80;56.20
44509;DHT22;30214;52.246;14.408;2023-06-26T13:33:57;32.90;56.00
44509;DHT22;30214;52.246;14.408;2023-06-26T13:36:27;32.90;57.40
44509;DHT22;30214;52.246;14.408;2023-06-26T13:38:56;32.90;54.30
44509;DHT22;30214;52.246;14.408;2023-06-26T13:41:24;32.80;56.10
44509;DHT22;30214;52.246;14.408;2023-06-26T13:43:51;32.60;55.40
44509;DHT22;30214;52.246;14.408;2023-06-26T13:46:21;32.40;58.20
44509;DHT22;30214;52.246;14.408;2023-06-26T13:48:48;32.40;55.20
44509;DHT22;30214;52.246;14.408;2023-06-26T13:51:20;32.40;54.20
44509;DHT22;30214;52.246;14.408;2023-06-26T13:53:53;32.50;56.80
44509;DHT22;30214;52.246;14.408;2023-06-26T13:59:20;32.80;55.50
44509;DHT22;30214;52.246;14.408;2023-06-26T14:01:55;32.80;53.10
44509;DHT22;30214;52.246;14.408;2023-06-26T14:04:43;32.60;54.00
44509;DHT22;30214;52.246;14.408;2023-06-26T14:11:24;32.00;56.10
44509;DHT22;30214;52.246;14.408;2023-06-26T14:17:56;31.70;56.40
44509;DHT22;30214;52.246;14.408;2023-06-26T14:20:24;31.90;56.20
44509;DHT22;30214;52.246;14.408;2023-06-26T14:23:22;32.10;54.50
44509;DHT22;30214;52.246;14.408;2023-06-26T14:25:56;32.40;54.90
44509;DHT22;30214;52.246;14.408;2023-06-26T14:32:18;32.00;57.00
44509;DHT22;30214;52.246;14.408;2023-06-26T14:38:36;32.30;55.60
44509;DHT22;30214;52.246;14.408;2023-06-26T14:48:47;32.50;55.00
44509;DHT22;30214;52.246;14.408;2023-06-26T14:51:22;32.10;54.90
44509;DHT22;30214;52.246;14.408;2023-06-26T14:57:19;31.70;55.50
44509;DHT22;30214;52.246;14.408;2023-06-26T15:00:08;31.60;60.40
44509;DHT22;30214;52.246;14.408;2023-06-26T15:02:36;31.40;59.30
44509;DHT22;30214;52.246;14.408;2023-06-26T15:05:13;31.10;58.80
44509;DHT22;30214;52.246;14.408;2023-06-26T15:07:40;31.00;58.70
44509;DHT22;30214;52.246;14.408;2023-06-26T15:10:10;31.00;58.90
44509;DHT22;30214;52.246;14.408;2023-06-26T15:12:37;30.90;61.90
44509;DHT22;30214;52.246;14.408;2023-06-26T15:15:07;30.70;58.60
44509;DHT22;30214;52.246;14.408;2023-06-26T15:17:36;30.70;58.90
44509;DHT22;30214;52.246;14.408;2023-06-26T15:20:06;30.40;59.90
44509;DHT22;30214;52.246;14.408;2023-06-26T15:22:36;30.30;59.90
44509;DHT22;30214;52.246;14.408;2023-06-26T15:25:05;30.30;59.50
44509;DHT22;30214;52.246;14.408;2023-06-26T15:27:33;30.30;61.00
44509;DHT22;30214;52.246;14.408;2023-06-26T15:30:07;30.10;62.10
44509;DHT22;30214;52.246;14.408;2023-06-26T15:33:02;30.10;66.30
44509;DHT22;30214;52.246;14.408;2023-06-26T15:35:29;29.90;66.30
44509;DHT22;30214;52.246;14.408;2023-06-26T15:37:58;29.80;68.00
44509;DHT22;30214;52.246;14.408;2023-06-26T15:40:25;29.60;67.80
44509;DHT22;30214;52.246;14.408;2023-06-26T15:42:52;29.50;65.40
44509;DHT22;30214;52.246;14.408;2023-06-26T15:48:54;28.20;78.20
44509;DHT22;30214;52.246;14.408;2023-06-26T15:51:31;26.40;91.20
44509;DHT22;30214;52.246;14.408;2023-06-26T15:54:37;25.30;99.90
44509;DHT22;30214;52.246;14.408;2023-06-26T16:08:13;23.40;99.90
44509;DHT22;30214;52.246;14.408;2023-06-26T16:10:47;23.40;99.90
44509;DHT22;30214;52.246;14.408;2023-06-26T16:13:37;23.40;99.90
44509;DHT22;30214;52.246;14.408;2023-06-26T16:16:08;23.20;99.90
44509;DHT22;30214;52.246;14.408;2023-06-26T16:18:58;23.00;99.90
44509;DHT22;30214;52.246;14.408;2023-06-26T16:21:56;22.80;99.90
44509;DHT22;30214;52.246;14.408;2023-06-26T16:24:48;22.60;99.90
44509;DHT22;30214;52.246;14.408;2023-06-26T16:27:24;22.40;99.90
44509;DHT22;30214;52.246;14.408;2023-06-26T16:29:56;22.10;99.90
44509;DHT22;30214;52.246;14.408;2023-06-26T16:32:28;22.00;99.90
44509;DHT22;30214;52.246;14.408;2023-06-26T16:35:00;22.00;99.90
44509;DHT22;30214;52.246;14.408;2023-06-26T16:37:27;22.10;99.90
44509;DHT22;30214;52.246;14.408;2023-06-26T16:40:01;21.90;99.90
44509;DHT22;30214;52.246;14.408;2023-06-26T16:42:32;21.80;99.90
44509;DHT22;30214;52.246;14.408;2023-06-26T16:45:04;21.60;99.90
44509;DHT22;30214;52.246;14.408;2023-06-26T16:47:31;21.50;99.90
44509;DHT22;30214;52.246;14.408;2023-06-26T16:50:00;21.40;99.90
44509;DHT22;30214;52.246;14.408;2023-06-26T16:55:31;21.30;99.90
44509;DHT22;30214;52.246;14.408;2023-06-26T16:58:01;21.20;99.90
44509;DHT22;30214;52.246;14.408;2023-06-26T17:01:05;21.10;99.90
44509;DHT22;30214;52.246;14.408;2023-06-26T17:03:45;21.20;99.90
44509;DHT22;30214;52.246;14.408;2023-06-26T17:17:48;21.50;99.90
44509;DHT22;30214;52.246;14.408;2023-06-26T17:31:42;21.80;99.90
44509;DHT22;30214;52.246;14.408;2023-06-26T17:34:15;22.00;99.90
44509;DHT22;30214;52.246;14.408;2023-06-26T17:36:42;22.00;99.90
44509;DHT22;30214;52.246;14.408;2023-06-26T17:39:27;22.00;99.90
44509;DHT22;30214;52.246;14.408;2023-06-26T17:41:59;22.00;99.90
44509;DHT22;30214;52.246;14.408;2023-06-26T17:44:53;21.90;99.90
44509;DHT22;30214;52.246;14.408;2023-06-26T17:47:22;21.80;99.90
44509;DHT22;30214;52.246;14.408;2023-06-26T17:49:52;21.70;99.90
44509;DHT22;30214;52.246;14.408;2023-06-26T17:52:19;21.60;99.90
44509;DHT22;30214;52.246;14.408;2023-06-26T17:54:56;21.60;99.90
44509;DHT22;30214;52.246;14.408;2023-06-26T17:57:27;21.50;99.90
44509;DHT22;30214;52.246;14.408;2023-06-26T17:59:56;21.50;99.90
44509;DHT22;30214;52.246;14.408;2023-06-26T18:02:25;21.30;99.90
44509;DHT22;30214;52.246;14.408;2023-06-26T18:04:54;21.30;99.90
44509;DHT22;30214;52.246;14.408;2023-06-26T18:07:22;21.20;99.90
44509;DHT22;30214;52.246;14.408;2023-06-26T18:09:50;21.10;99.90
44509;DHT22;30214;52.246;14.408;2023-06-26T18:12:19;21.10;99.90
44509;DHT22;30214;52.246;14.408;2023-06-26T18:14:46;21.20;99.90
44509;DHT22;30214;52.246;14.408;2023-06-26T18:17:14;21.00;99.90
44509;DHT22;30214;52.246;14.408;2023-06-26T18:19:42;21.00;99.90
44509;DHT22;30214;52.246;14.408;2023-06-26T18:22:17;20.90;99.90
44509;DHT22;30214;52.246;14.408;2023-06-26T18:24:44;20.60;99.90
44509;DHT22;30214;52.246;14.408;2023-06-26T18:27:12;20.70;99.90
44509;DHT22;30214;52.246;14.408;2023-06-26T18:33:01;20.80;99.90
44509;DHT22;30214;52.246;14.408;2023-06-26T18:38:48;20.90;99.90
44509;DHT22;30214;52.246;14.408;2023-06-26T18:41:15;21.00;99.90
44509;DHT22;30214;52.246;14.408;2023-06-26T18:43:45;21.10;99.90
44509;DHT22;30214;52.246;14.408;2023-06-26T18:49:42;21.20;99.90
44509;DHT22;30214;52.246;14.408;2023-06-26T18:52:24;21.20;99.90
44509;DHT22;30214;52.246;14.408;2023-06-26T18:58:44;21.00;99.90
44509;DHT22;30214;52.246;14.408;2023-06-26T19:01:17;20.80;99.90
44509;DHT22;30214;52.246;14.408;2023-06-26T19:04:46;20.80;99.90
44509;DHT22;30214;52.246;14.408;2023-06-26T19:07:19;20.80;99.90
44509;DHT22;30214;52.246;14.408;2023-06-26T19:13:47;20.80;99.90
44509;DHT22;30214;52.246;14.408;2023-06-26T19:19:14;20.90;99.90
44509;DHT22;30214;52.246;14.408;2023-06-26T19:25:54;20.90;99.90
44509;DHT22;30214;52.246;14.408;2023-06-26T19:32:15;20.80;99.90
44509;DHT22;30214;52.246;14.408;2023-06-26T19:42:18;20.60;99.90
44509;DHT22;30214;52.246;14.408;2023-06-26T19:44:50;20.50;99.90
44509;DHT22;30214;52.246;14.408;2023-06-26T19:51:36;20.40;99.90
44509;DHT22;30214;52.246;14.408;2023-06-26T19:57:51;20.40;99.90
44509;DHT22;30214;52.246;14.408;2023-06-26T20:15:42;19.90;99.90
44509;DHT22;30214;52.246;14.408;2023-06-26T20:18:51;19.80;99.90
44509;DHT22;30214;52.246;14.408;2023-06-26T20:25:11;19.70;99.90
44509;DHT22;30214;52.246;14.408;2023-06-26T20:27:41;19.50;99.90
44509;DHT22;30214;52.246;14.408;2023-06-26T20:30:12;19.50;99.90
44509;DHT22;30214;52.246;14.408;2023-06-26T20:33:08;19.50;99.90
44509;DHT22;30214;52.246;14.408;2023-06-26T20:40:06;19.50;99.90
44509;DHT22;30214;52.246;14.408;2023-06-26T20:42:33;19.50;99.90
44509;DHT22;30214;52.246;14.408;2023-06-26T20:45:59;19.60;99.90
44509;DHT22;30214;52.246;14.408;2023-06-26T20:48:57;19.60;99.90
44509;DHT22;30214;52.246;14.408;2023-06-26T20:51:29;19.70;99.90
44509;DHT22;30214;52.246;14.408;2023-06-26T20:54:37;19.70;99.90
44509;DHT22;30214;52.246;14.408;2023-06-26T20:57:47;19.70;99.90
44509;DHT22;30214;52.246;14.408;2023-06-26T21:00:27;19.70;99.90
44509;DHT22;30214;52.246;14.408;2023-06-26T21:04:13;19.70;99.90
44509;DHT22;30214;52.246;14.408;2023-06-26T21:15:38;19.60;99.90
44509;DHT22;30214;52.246;14.408;2023-06-26T21:22:38;19.30;99.90
44509;DHT22;30214;52.246;14.408;2023-06-26T21:29:09;19.40;99.90
44509;DHT22;30214;52.246;14.408;2023-06-26T21:32:36;19.30;99.90
44509;DHT22;30214;52.246;14.408;2023-06-26T21:35:54;19.30;99.90
44509;DHT22;30214;52.246;14.408;2023-06-26T21:38:38;19.20;99.90
44509;DHT22;30214;52.246;14.408;2023-06-26T21:41:17;19.20;99.90
44509;DHT22;30214;52.246;14.408;2023-06-26T21:43:44;19.30;99.90
44509;DHT22;30214;52.246;14.408;2023-06-26T21:46:12;19.20;99.90
44509;DHT22;30214;52.246;14.408;2023-06-26T21:48:45;19.10;99.90
44509;DHT22;30214;52.246;14.408;2023-06-26T21:51:17;19.00;99.90
44509;DHT22;30214;52.246;14.408;2023-06-26T21:54:58;19.00;99.90
44509;DHT22;30214;52.246;14.408;2023-06-26T21:57:12;18.90;99.90
44509;DHT22;30214;52.246;14.408;2023-06-26T21:59:40;18.80;99.90
44509;DHT22;30214;52.246;14.408;2023-06-26T22:02:13;18.80;99.90
44509;DHT22;30214;52.246;14.408;2023-06-26T22:04:44;18.90;99.90
44509;DHT22;30214;52.246;14.408;2023-06-26T22:07:17;18.90;99.90
44509;DHT22;30214;52.246;14.408;2023-06-26T22:09:49;18.90;99.90
44509;DHT22;30214;52.246;14.408;2023-06-26T22:12:16;18.90;99.90
44509;DHT22;30214;52.246;14.408;2023-06-26T22:14:44;18.90;99.90
44509;DHT22;30214;52.246;14.408;2023-06-26T22:17:11;18.90;99.90
44509;DHT22;30214;52.246;14.408;2023-06-26T22:19:41;18.90;99.90
44509;DHT22;30214;52.246;14.408;2023-06-26T22:22:09;18.90;99.90
44509;DHT22;30214;52.246;14.408;2023-06-26T22:24:37;18.90;99.90
44509;DHT22;30214;52.246;14.408;2023-06-26T22:27:09;18.90;99.90
44509;DHT22;30214;52.246;14.408;2023-06-26T22:29:37;18.90;99.90
44509;DHT22;30214;52.246;14.408;2023-06-26T22:32:05;18.80;99.90
44509;DHT22;30214;52.246;14.408;2023-06-26T22:34:32;18.80;99.90
44509;DHT22;30214;52.246;14.408;2023-06-26T22:37:00;18.80;99.90
44509;DHT22;30214;52.246;14.408;2023-06-26T22:39:27;18.70;99.90
44509;DHT22;30214;52.246;14.408;2023-06-26T22:42:14;18.80;99.90
44509;DHT22;30214;52.246;14.408;2023-06-26T22:44:52;18.70;99.90
44509;DHT22;30214;52.246;14.408;2023-06-26T22:47:22;18.70;99.90
44509;DHT22;30214;52.246;14.408;2023-06-26T22:49:51;18.60;99.90
44509;DHT22;30214;52.246;14.408;2023-06-26T22:52:28;18.60;99.90
44509;DHT22;30214;52.246;14.408;2023-06-26T22:58:42;18.50;99.90
44509;DHT22;30214;52.246;14.408;2023-06-26T23:02:02;18.40;99.90
44509;DHT22;30214;52.246;14.408;2023-06-26T23:08:41;18.40;99.90
44509;DHT22;30214;52.246;14.408;2023-06-26T23:15:46;18.30;99.90
44509;DHT22;30214;52.246;14.408;2023-06-26T23:22:07;18.20;99.90
44509;DHT22;30214;52.246;14.408;2023-06-26T23:29:00;18.10;99.90
44509;DHT22;30214;52.246;14.408;2023-06-26T23:31:34;18.00;99.90
44509;DHT22;30214;52.246;14.408;2023-06-26T23:34:03;18.00;99.90
44509;DHT22;30214;52.246;14.408;2023-06-26T23:36:34;18.00;99.90
44509;DHT22;30214;52.246;14.408;2023-06-26T23:39:34;18.00;99.90
